Overseas Los Angeles — WABS — position and weather

sailwx.info

Track history (hours):
 
Tides and Currents Weather Stations Pressure Air Temp Water Temp Dewpoint Dewpoint Depression Visibility Wind Speed Wind Dir Waves Ship Positions

Overseas Los Angeles

Owner: ASC Leasing III, Inc., KENNETT SQUARE, PA. More information available from US FCC via Universal Licensing System and Coast Guard Vessel Documentation Center.

Last reported at 2018-Jun-21 06:47 UTC. Time now 2018-Jun-21 19:59 UTC.
Position N 38°03' W 122°06'.

Length 183 m; draft 10.1 m.

Type: Tanker. MMSI: 367134000.

Date/timePositionNaut miles runAvg speedWind from/ knotsBaromVisibWave heightAir tempDewpointWater temp
2018-Jun-21 06:47N 38°03' W 122°06'1 1.5
2018-Jun-21 06:07N 38°02' W 122°07'1 5.9
2018-Jun-21 05:58N 38°02' W 122°08'3 7.3
2018-Jun-21 05:30N 38°04' W 122°12'510.3
2018-Jun-21 05:00N 38°03' W 122°19'510.9
2018-Jun-21 04:30N 38°00' W 122°24'5 9.5
2018-Jun-21 04:00N 37°56' W 122°25'1 1.8
2018-Jun-21 03:31N 37°55' W 122°25'0 0.0
2018-Jun-21 02:58N 37°55' W 122°25'0 0.0
2018-Jun-21 02:25N 37°55' W 122°25'0 0.0
2018-Jun-21 01:55N 37°55' W 122°25'0 0.0
2018-Jun-21 01:28N 37°55' W 122°25'0 0.0
2018-Jun-21 00:58N 37°55' W 122°25'0 0.0
2018-Jun-21 00:28N 37°55' W 122°25'0 0.0
2018-Jun-20 23:52N 37°55' W 122°25'0 0.0
2018-Jun-20 23:28N 37°55' W 122°25'0 0.0
2018-Jun-20 22:58N 37°55' W 122°25'0 0.0
2018-Jun-20 22:28N 37°55' W 122°25'0 0.0
2018-Jun-20 21:58N 37°55' W 122°25'0 0.0
2018-Jun-20 21:28N 37°55' W 122°25'0 0.0
2018-Jun-20 20:52N 37°55' W 122°25'0 0.0
2018-Jun-20 20:25N 37°55' W 122°25'0 0.0
2018-Jun-20 19:58N 37°55' W 122°25'0 0.0
2018-Jun-20 19:28N 37°55' W 122°25'0 0.0
2018-Jun-20 18:58N 37°55' W 122°25'0 0.0
2018-Jun-20 18:28N 37°55' W 122°25'0 0.0
2018-Jun-20 17:58N 37°55' W 122°25'0 0.0
2018-Jun-20 17:25N 37°55' W 122°25'0 0.0
2018-Jun-20 17:01N 37°55' W 122°25'0 0.0
2018-Jun-20 16:31N 37°55' W 122°25'0 0.0
2018-Jun-20 15:46N 37°55' W 122°25'0 0.0
2018-Jun-20 15:19N 37°55' W 122°25'0 0.0
2018-Jun-20 14:55N 37°55' W 122°25'0 0.0
2018-Jun-20 14:07N 37°55' W 122°25'0 0.0
2018-Jun-20 13:55N 37°55' W 122°25'0 0.0
2018-Jun-20 13:13N 37°55' W 122°25'0 0.0
2018-Jun-20 12:58N 37°55' W 122°25'0 0.0
2018-Jun-20 12:31N 37°55' W 122°25'0 0.0
2018-Jun-20 11:55N 37°55' W 122°25'0 0.0
2018-Jun-20 11:31N 37°55' W 122°25'0 0.0
2018-Jun-20 11:01N 37°55' W 122°25'0 0.0
2018-Jun-20 10:31N 37°55' W 122°25'0 0.0
2018-Jun-20 10:01N 37°55' W 122°25'0 0.0
2018-Jun-20 09:31N 37°55' W 122°25'0 0.0
2018-Jun-20 08:43N 37°55' W 122°25'0 0.0
2018-Jun-20 08:25N 37°55' W 122°25'0 0.0
2018-Jun-20 08:01N 37°55' W 122°25'0 0.0
2018-Jun-20 07:13N 37°55' W 122°25'0 0.0
2018-Jun-20 07:01N 37°55' W 122°25'0 0.0
2018-Jun-20 06:31N 37°55' W 122°25'0 0.0
2018-Jun-20 06:01N 37°55' W 122°25'0 0.0
2018-Jun-20 05:31N 37°55' W 122°25'0 0.0
2018-Jun-20 05:01N 37°55' W 122°25'0 0.0
2018-Jun-20 04:25N 37°55' W 122°25'0 0.0
2018-Jun-20 03:58N 37°55' W 122°25'0 0.0
2018-Jun-20 03:31N 37°55' W 122°25'0 0.1
2018-Jun-20 03:00N 37°55' W 122°25'3 5.5
2018-Jun-20 02:30N 37°53' W 122°25'3 6.4
2018-Jun-20 02:00N 37°50' W 122°27'612.1
2018-Jun-20 01:30N 37°47' W 122°34'613.0
2018-Jun-20 01:00N 37°44' W 122°41'5 9.5
2018-Jun-20 00:31N 37°41' W 122°46'5 9.7
2018-Jun-20 00:00N 37°38' W 122°51'5 9.7
2018-Jun-19 23:30N 37°36' W 122°56'5 9.8
2018-Jun-19 23:01N 37°33' W 123°02'510.7
2018-Jun-19 22:31N 37°32' W 123°08'611.7
2018-Jun-19 22:00N 37°30' W 123°15'711.7
2018-Jun-19 21:26N 37°29' W 123°24'511.3
2018-Jun-19 20:58N 37°28' W 123°30'510.7
2018-Jun-19 20:31N 37°27' W 123°36'5 9.4
2018-Jun-19 20:00N 37°26' W 123°42'1 1.5
2018-Jun-19 19:30N 37°27' W 123°43'1 1.9
2018-Jun-19 19:00N 37°27' W 123°44'1 2.1
2018-Jun-19 18:30N 37°27' W 123°45'1 1.8
2018-Jun-19 18:00N 37°27' W 123°47'1 2.0
2018-Jun-19 17:30N 37°27' W 123°48'510.6
2018-Jun-19 17:00N 37°24' W 123°42'556.4 330 / 161018.010.8 13.011.3
2018-Jun-19 16:54N 37°27' W 123°48'0 0.3
2018-Jun-19 16:26N 37°27' W 123°48'0 0.7
2018-Jun-19 15:48N 37°27' W 123°47'1 1.6
2018-Jun-19 15:27N 37°26' W 123°48'3 6.2
2018-Jun-19 15:00N 37°26' W 123°51'1 1.7
2018-Jun-19 14:31N 37°25' W 123°52'1 1.6
2018-Jun-19 14:00N 37°25' W 123°53'0 0.6
2018-Jun-19 13:30N 37°25' W 123°53'0 0.6
2018-Jun-19 12:53N 37°25' W 123°53'0 0.3
2018-Jun-19 12:30N 37°25' W 123°53'0 0.3
2018-Jun-19 12:00N 37°25' W 123°52'0 0.4
2018-Jun-19 11:26N 37°25' W 123°52'0 0.4
2018-Jun-19 11:00N 37°26' W 123°52'0 0.6
2018-Jun-19 10:30N 37°25' W 123°52'0 0.7
2018-Jun-19 10:01N 37°25' W 123°51'3174.6
2018-Jun-19 10:00N 37°24' W 123°48'3 5.7 330 / 121017.5 5.4 13.011.3
2018-Jun-19 09:31N 37°25' W 123°51'0 0.4
2018-Jun-19 09:01N 37°25' W 123°51'3151.2
2018-Jun-19 09:00N 37°24' W 123°48'2 4.7 330 / 151017.5 5.4 13.013.0
2018-Jun-19 08:30N 37°25' W 123°51'0 0.7
2018-Jun-19 08:00N 37°25' W 123°50'2237.2
2018-Jun-19 08:00N 37°24' W 123°48'2 2.9 330 / 151017.5 5.4 13.011.3
2018-Jun-19 07:25N 37°25' W 123°50'1 0.8
2018-Jun-19 06:18N 37°26' W 123°49'1 0.9
2018-Jun-19 05:20N 37°26' W 123°48'2 6.5
2018-Jun-19 05:00N 37°24' W 123°48'5 4.8 330 / 161017.010.8 12.012.0
2018-Jun-19 04:00N 37°24' W 123°42'519.7 330 / 141018.010.8 14.014.0
2018-Jun-19 03:44N 37°26' W 123°48'0 0.1
2018-Jun-19 02:48N 37°26' W 123°48'0 0.3
2018-Jun-19 02:06N 37°26' W 123°48'0 0.3
2018-Jun-19 01:55N 37°26' W 123°48'0 0.4
2018-Jun-19 00:45N 37°26' W 123°48'0 0.4
2018-Jun-18 23:53N 37°26' W 123°48'1 0.7
2018-Jun-18 22:58N 37°25' W 123°48'0 0.3
2018-Jun-18 22:22N 37°25' W 123°48'0 0.6
2018-Jun-18 21:56N 37°25' W 123°48'8 8.5
2018-Jun-18 21:00N 37°18' W 123°42'715.2 240 / 81018.010.8 15.013.312.0
2018-Jun-18 20:33N 37°23' W 123°47'1 2.1
2018-Jun-18 20:14N 37°23' W 123°46'1310.1
2018-Jun-18 18:59N 37°36' W 123°47'912.3
2018-Jun-18 18:15N 37°37' W 123°58'311.5
2018-Jun-18 18:01N 37°37' W 124°01'4 7.6
2018-Jun-18 17:31N 37°38' W 124°06'713.3
2018-Jun-18 17:00N 37°39' W 124°14'713.8
2018-Jun-18 16:30N 37°40' W 124°23'713.7
2018-Jun-18 16:00N 37°42' W 124°32'714.1
2018-Jun-18 15:29N 37°43' W 124°41'714.4
2018-Jun-18 14:59N 37°44' W 124°50'1811.2
2018-Jun-18 13:24N 37°45' W 125°12'4513.2
2018-Jun-18 10:00N 38°30' W 125°18'1212.0 360 / 61016.0 2.2 13.013.0
2018-Jun-18 09:00N 38°42' W 125°18'1212.0 020 / 71016.0 0.5 13.013.0
2018-Jun-18 08:00N 38°54' W 125°18'14514.5 350 / 151016.0 0.5 13.013.0
2018-Jun-17 22:00N 41°18' W 125°42'0 2.6 330 / 251013.0 5.4 17.013.713.0
2018-Jun-17 21:49N 41°18' W 125°43'715.0
2018-Jun-17 21:21N 41°25' W 125°44'514.2
2018-Jun-17 21:00N 41°30' W 125°42'259.6 350 / 201013.5 5.4 19.015.912.0
2018-Jun-17 20:57N 41°31' W 125°45'813.6
2018-Jun-17 20:22N 41°39' W 125°46'4 9.8
2018-Jun-17 20:00N 41°42' W 125°48'326.0 350 / 151014.0 5.4 18.014.8
2018-Jun-17 19:52N 41°45' W 125°47'513.8
2018-Jun-17 19:30N 41°50' W 125°48'3413.5
2018-Jun-17 17:00N 42°24' W 125°48'9015.0 350 / 181014.510.8 16.014.4
2018-Jun-17 11:00N 43°54' W 125°48'1212.0 350 / 201014.510.8 15.013.3
2018-Jun-17 10:00N 44°06' W 125°48'621.5 350 / 201014.510.8 15.013.3
2018-Jun-17 09:44N 44°10' W 125°53'314.6
2018-Jun-17 09:30N 44°13' W 125°54'1121.0
2018-Jun-17 09:00N 44°24' W 125°54'3483.3 350 / 221015.010.8 15.013.3
2018-Jun-17 08:59N 44°21' W 125°54'715.3
2018-Jun-17 08:30N 44°28' W 125°54'815.1
2018-Jun-17 07:58N 44°37' W 125°54'714.9
2018-Jun-17 07:28N 44°44' W 125°54'715.1
2018-Jun-17 06:59N 44°51' W 125°54'915.0
2018-Jun-17 06:24N 45°00' W 125°55'614.9
2018-Jun-17 06:00N 45°06' W 125°55'715.0
2018-Jun-17 05:30N 45°13' W 125°55'715.0
2018-Jun-17 05:00N 45°21' W 125°55'815.2
2018-Jun-17 04:30N 45°29' W 125°56'815.1
2018-Jun-17 04:00N 45°36' W 125°56'815.4
2018-Jun-17 03:30N 45°44' W 125°56'815.1
2018-Jun-17 03:00N 45°51' W 125°56'815.1
2018-Jun-17 02:30N 45°59' W 125°56'714.9
2018-Jun-17 02:00N 46°06' W 125°57'815.2
2018-Jun-17 01:30N 46°14' W 125°57'714.9
2018-Jun-17 01:00N 46°21' W 125°57'714.9
2018-Jun-17 00:30N 46°29' W 125°57'714.9
2018-Jun-17 00:00N 46°36' W 125°57'715.1
2018-Jun-16 23:31N 46°44' W 125°57'815.0
2018-Jun-16 23:00N 46°51' W 125°58'715.0
2018-Jun-16 22:31N 46°59' W 125°58'815.0
2018-Jun-16 22:00N 47°06' W 125°58'3173.6
2018-Jun-16 22:00N 47°06' W 125°54'816.7 340 / 181016.510.8 17.011.9 8.0
2018-Jun-16 21:30N 47°14' W 125°58'714.9
2018-Jun-16 21:00N 47°21' W 125°58'4268.8
2018-Jun-16 21:00N 47°24' W 125°54'511.0 330 / 201017.010.8 18.014.8
2018-Jun-16 20:30N 47°28' W 125°58'815.8
2018-Jun-16 20:00N 47°36' W 125°54'330.5 310 / 171017.010.8 19.014.2
2018-Jun-16 19:54N 47°37' W 125°58'514.0
2018-Jun-16 19:30N 47°42' W 125°54'714.2
2018-Jun-16 19:00N 47°47' W 125°47'714.3
2018-Jun-16 18:30N 47°53' W 125°41'714.3
2018-Jun-16 18:00N 47°59' W 125°35'714.7
2018-Jun-16 17:30N 48°05' W 125°28'714.4
2018-Jun-16 17:00N 48°11' W 125°22'5347.4
2018-Jun-16 17:00N 48°06' W 125°18'1121.8 300 / 51016.510.8 15.011.6
2018-Jun-16 16:30N 48°17' W 125°16'714.2
2018-Jun-16 16:00N 48°22' W 125°10'714.7
2018-Jun-16 15:30N 48°28' W 125°03'714.5
2018-Jun-16 15:00N 48°30' W 124°53'915.6
2018-Jun-16 14:27N 48°29' W 124°40'715.5
2018-Jun-16 14:00N 48°27' W 124°30'815.0
2018-Jun-16 13:30N 48°24' W 124°20'714.8
2018-Jun-16 13:00N 48°21' W 124°09'714.1
2018-Jun-16 12:30N 48°18' W 123°60'714.2
2018-Jun-16 12:00N 48°16' W 123°49'914.4
2018-Jun-16 11:21N 48°15' W 123°35'613.9
2018-Jun-16 10:55N 48°13' W 123°27'512.0
2018-Jun-16 10:30N 48°09' W 123°23'510.5
2018-Jun-16 10:00N 48°11' W 123°15'713.5
2018-Jun-16 09:30N 48°16' W 123°08'2110.6
2018-Jun-16 07:29N 48°30' W 122°44'811.0
2018-Jun-16 06:44N 48°38' W 122°44'310.1
2018-Jun-16 06:28N 48°41' W 122°44'610.2
2018-Jun-16 05:53N 48°47' W 122°46'5 0.2
2018-Jun-15 00:52N 48°52' W 122°46'0 0.5
2018-Jun-15 00:30N 48°52' W 122°46'1 1.5
2018-Jun-14 23:58N 48°51' W 122°47'4 7.5
2018-Jun-14 23:29N 48°47' W 122°47'613.1
2018-Jun-14 23:01N 48°42' W 122°44'815.6
2018-Jun-14 22:30N 48°34' W 122°45'917.1
2018-Jun-14 22:01N 48°25' W 122°46'816.0
2018-Jun-14 21:29N 48°20' W 122°56'23 2.5
2018-Jun-14 12:14N 48°08' W 123°26'0 0.0
2018-Jun-14 11:44N 48°08' W 123°26'0 0.0
2018-Jun-14 11:26N 48°08' W 123°26'0 0.0
2018-Jun-14 10:59N 48°08' W 123°26'0 0.1
2018-Jun-14 10:14N 48°08' W 123°26'0 0.0
2018-Jun-14 09:53N 48°08' W 123°26'0 0.0
2018-Jun-14 09:29N 48°08' W 123°26'2 5.1
2018-Jun-14 09:00N 48°06' W 123°24'221.8 280 / 171016.510.8 12.010.2
2018-Jun-14 08:53N 48°08' W 123°26'2 2.7
2018-Jun-14 08:00N 48°06' W 123°24'2 3.0 280 / 151016.010.8 12.010.2
2018-Jun-14 07:11N 48°08' W 123°26'0 0.0
2018-Jun-13 10:47N 48°08' W 123°26'0 0.3
2018-Jun-13 10:11N 48°08' W 123°26'313.3
2018-Jun-13 10:00N 48°06' W 123°24'2 2.7 1011.010.8 12.010.2
2018-Jun-13 09:05N 48°08' W 123°26'227.5
2018-Jun-13 09:00N 48°06' W 123°24'241.2 1011.010.8 12.010.2
2018-Jun-13 08:56N 48°08' W 123°26'0 0.1
2018-Jun-13 08:29N 48°08' W 123°26'0 0.0
2018-Jun-13 07:53N 48°08' W 123°26'0 0.1
2018-Jun-13 07:29N 48°08' W 123°26'0 0.2
2018-Jun-13 06:56N 48°08' W 123°26'0 0.0
2018-Jun-13 06:29N 48°08' W 123°26'2 5.0
2018-Jun-13 06:00N 48°06' W 123°24'2238.2 080 / 51013.510.8 15.0 9.7
2018-Jun-13 05:59N 48°08' W 123°26'0 0.0
2018-Jun-12 13:53N 48°08' W 123°26'0 0.1
2018-Jun-12 13:26N 48°08' W 123°26'0 0.1
2018-Jun-12 12:58N 48°08' W 123°26'3 5.8
2018-Jun-12 12:30N 48°09' W 123°23'4 8.9
2018-Jun-12 12:00N 48°12' W 123°29'612.2
2018-Jun-12 11:30N 48°13' W 123°38'1114.1
2018-Jun-12 10:41N 48°13' W 123°55'713.9
2018-Jun-12 10:12N 48°16' W 124°04'314.5
2018-Jun-12 10:00N 48°17' W 124°08'714.4
2018-Jun-12 09:31N 48°20' W 124°18'714.3
2018-Jun-12 09:00N 48°23' W 124°27'714.5
2018-Jun-12 08:31N 48°26' W 124°37'714.7
2018-Jun-12 08:01N 48°28' W 124°48'814.9
2018-Jun-12 07:29N 48°28' W 124°59'715.3
2018-Jun-12 07:00N 48°22' W 125°06'814.7
2018-Jun-12 06:27N 48°15' W 125°13'1014.7
2018-Jun-12 05:48N 48°08' W 125°23'414.3
2018-Jun-12 05:30N 48°05' W 125°26'3714.4
2018-Jun-12 02:54N 47°35' W 126°01'3714.2
2018-Jun-12 00:19N 46°59' W 126°00'5315.8
2018-Jun-11 21:00N 46°06' W 125°54'1212.0 030 / 101024.010.8 16.0 8.813.0
2018-Jun-11 20:00N 45°54' W 125°54'2313.1 010 / 151023.510.8 15.0 7.612.0
2018-Jun-11 18:16N 45°31' W 125°55'914.7
2018-Jun-11 17:41N 45°23' W 125°55'  
Track history (hours):
 
Tides and Currents Weather Stations Pressure Air Temp Water Temp Dewpoint Dewpoint Depression Visibility Wind Speed Wind Dir Waves Ship Positions

Overseas Los Angeles

Owner: ASC Leasing III, Inc., KENNETT SQUARE, PA. More information available from US FCC via Universal Licensing System and Coast Guard Vessel Documentation Center.

Last reported at 2018-Jun-21 06:47 UTC. Time now 2018-Jun-21 19:59 UTC.
Position N 38°03' W 122°06'.

Length 183 m; draft 10.1 m.

Type: Tanker. MMSI: 367134000.

Date/timePositionNaut miles runAvg speedWind from/ knotsBaromVisibWave heightAir tempDewpointWater temp
2018-Jun-21 06:47N 38°03' W 122°06'1 1.5
2018-Jun-21 06:07N 38°02' W 122°07'1 5.9
2018-Jun-21 05:58N 38°02' W 122°08'3 7.3
2018-Jun-21 05:30N 38°04' W 122°12'510.3
2018-Jun-21 05:00N 38°03' W 122°19'510.9
2018-Jun-21 04:30N 38°00' W 122°24'5 9.5
2018-Jun-21 04:00N 37°56' W 122°25'1 1.8
2018-Jun-21 03:31N 37°55' W 122°25'0 0.0
2018-Jun-21 02:58N 37°55' W 122°25'0 0.0
2018-Jun-21 02:25N 37°55' W 122°25'0 0.0
2018-Jun-21 01:55N 37°55' W 122°25'0 0.0
2018-Jun-21 01:28N 37°55' W 122°25'0 0.0
2018-Jun-21 00:58N 37°55' W 122°25'0 0.0
2018-Jun-21 00:28N 37°55' W 122°25'0 0.0
2018-Jun-20 23:52N 37°55' W 122°25'0 0.0
2018-Jun-20 23:28N 37°55' W 122°25'0 0.0
2018-Jun-20 22:58N 37°55' W 122°25'0 0.0
2018-Jun-20 22:28N 37°55' W 122°25'0 0.0
2018-Jun-20 21:58N 37°55' W 122°25'0 0.0
2018-Jun-20 21:28N 37°55' W 122°25'0 0.0
2018-Jun-20 20:52N 37°55' W 122°25'0 0.0
2018-Jun-20 20:25N 37°55' W 122°25'0 0.0
2018-Jun-20 19:58N 37°55' W 122°25'0 0.0
2018-Jun-20 19:28N 37°55' W 122°25'0 0.0
2018-Jun-20 18:58N 37°55' W 122°25'0 0.0
2018-Jun-20 18:28N 37°55' W 122°25'0 0.0
2018-Jun-20 17:58N 37°55' W 122°25'0 0.0
2018-Jun-20 17:25N 37°55' W 122°25'0 0.0
2018-Jun-20 17:01N 37°55' W 122°25'0 0.0
2018-Jun-20 16:31N 37°55' W 122°25'0 0.0
2018-Jun-20 15:46N 37°55' W 122°25'0 0.0
2018-Jun-20 15:19N 37°55' W 122°25'0 0.0
2018-Jun-20 14:55N 37°55' W 122°25'0 0.0
2018-Jun-20 14:07N 37°55' W 122°25'0 0.0
2018-Jun-20 13:55N 37°55' W 122°25'0 0.0
2018-Jun-20 13:13N 37°55' W 122°25'0 0.0
2018-Jun-20 12:58N 37°55' W 122°25'0 0.0
2018-Jun-20 12:31N 37°55' W 122°25'0 0.0
2018-Jun-20 11:55N 37°55' W 122°25'0 0.0
2018-Jun-20 11:31N 37°55' W 122°25'0 0.0
2018-Jun-20 11:01N 37°55' W 122°25'0 0.0
2018-Jun-20 10:31N 37°55' W 122°25'0 0.0
2018-Jun-20 10:01N 37°55' W 122°25'0 0.0
2018-Jun-20 09:31N 37°55' W 122°25'0 0.0
2018-Jun-20 08:43N 37°55' W 122°25'0 0.0
2018-Jun-20 08:25N 37°55' W 122°25'0 0.0
2018-Jun-20 08:01N 37°55' W 122°25'0 0.0
2018-Jun-20 07:13N 37°55' W 122°25'0 0.0
2018-Jun-20 07:01N 37°55' W 122°25'0 0.0
2018-Jun-20 06:31N 37°55' W 122°25'0 0.0
2018-Jun-20 06:01N 37°55' W 122°25'0 0.0
2018-Jun-20 05:31N 37°55' W 122°25'0 0.0
2018-Jun-20 05:01N 37°55' W 122°25'0 0.0
2018-Jun-20 04:25N 37°55' W 122°25'0 0.0
2018-Jun-20 03:58N 37°55' W 122°25'0 0.0
2018-Jun-20 03:31N 37°55' W 122°25'0 0.1
2018-Jun-20 03:00N 37°55' W 122°25'3 5.5
2018-Jun-20 02:30N 37°53' W 122°25'3 6.4
2018-Jun-20 02:00N 37°50' W 122°27'612.1
2018-Jun-20 01:30N 37°47' W 122°34'613.0
2018-Jun-20 01:00N 37°44' W 122°41'5 9.5
2018-Jun-20 00:31N 37°41' W 122°46'5 9.7
2018-Jun-20 00:00N 37°38' W 122°51'5 9.7
2018-Jun-19 23:30N 37°36' W 122°56'5 9.8
2018-Jun-19 23:01N 37°33' W 123°02'510.7
2018-Jun-19 22:31N 37°32' W 123°08'611.7
2018-Jun-19 22:00N 37°30' W 123°15'711.7
2018-Jun-19 21:26N 37°29' W 123°24'511.3
2018-Jun-19 20:58N 37°28' W 123°30'510.7
2018-Jun-19 20:31N 37°27' W 123°36'5 9.4
2018-Jun-19 20:00N 37°26' W 123°42'1 1.5
2018-Jun-19 19:30N 37°27' W 123°43'1 1.9
2018-Jun-19 19:00N 37°27' W 123°44'1 2.1
2018-Jun-19 18:30N 37°27' W 123°45'1 1.8
2018-Jun-19 18:00N 37°27' W 123°47'1 2.0
2018-Jun-19 17:30N 37°27' W 123°48'510.6
2018-Jun-19 17:00N 37°24' W 123°42'556.4 330 / 161018.010.8 13.011.3
2018-Jun-19 16:54N 37°27' W 123°48'0 0.3
2018-Jun-19 16:26N 37°27' W 123°48'0 0.7
2018-Jun-19 15:48N 37°27' W 123°47'1 1.6
2018-Jun-19 15:27N 37°26' W 123°48'3 6.2
2018-Jun-19 15:00N 37°26' W 123°51'1 1.7
2018-Jun-19 14:31N 37°25' W 123°52'1 1.6
2018-Jun-19 14:00N 37°25' W 123°53'0 0.6
2018-Jun-19 13:30N 37°25' W 123°53'0 0.6
2018-Jun-19 12:53N 37°25' W 123°53'0 0.3
2018-Jun-19 12:30N 37°25' W 123°53'0 0.3
2018-Jun-19 12:00N 37°25' W 123°52'0 0.4
2018-Jun-19 11:26N 37°25' W 123°52'0 0.4
2018-Jun-19 11:00N 37°26' W 123°52'0 0.6
2018-Jun-19 10:30N 37°25' W 123°52'0 0.7
2018-Jun-19 10:01N 37°25' W 123°51'3174.6
2018-Jun-19 10:00N 37°24' W 123°48'3 5.7 330 / 121017.5 5.4 13.011.3
2018-Jun-19 09:31N 37°25' W 123°51'0 0.4
2018-Jun-19 09:01N 37°25' W 123°51'3151.2
2018-Jun-19 09:00N 37°24' W 123°48'2 4.7 330 / 151017.5 5.4 13.013.0
2018-Jun-19 08:30N 37°25' W 123°51'0 0.7
2018-Jun-19 08:00N 37°25' W 123°50'2237.2
2018-Jun-19 08:00N 37°24' W 123°48'2 2.9 330 / 151017.5 5.4 13.011.3
2018-Jun-19 07:25N 37°25' W 123°50'1 0.8
2018-Jun-19 06:18N 37°26' W 123°49'1 0.9
2018-Jun-19 05:20N 37°26' W 123°48'2 6.5
2018-Jun-19 05:00N 37°24' W 123°48'5 4.8 330 / 161017.010.8 12.012.0
2018-Jun-19 04:00N 37°24' W 123°42'519.7 330 / 141018.010.8 14.014.0
2018-Jun-19 03:44N 37°26' W 123°48'0 0.1
2018-Jun-19 02:48N 37°26' W 123°48'0 0.3
2018-Jun-19 02:06N 37°26' W 123°48'0 0.3
2018-Jun-19 01:55N 37°26' W 123°48'0 0.4
2018-Jun-19 00:45N 37°26' W 123°48'0 0.4
2018-Jun-18 23:53N 37°26' W 123°48'1 0.7
2018-Jun-18 22:58N 37°25' W 123°48'0 0.3
2018-Jun-18 22:22N 37°25' W 123°48'0 0.6
2018-Jun-18 21:56N 37°25' W 123°48'8 8.5
2018-Jun-18 21:00N 37°18' W 123°42'715.2 240 / 81018.010.8 15.013.312.0
2018-Jun-18 20:33N 37°23' W 123°47'1 2.1
2018-Jun-18 20:14N 37°23' W 123°46'1310.1
2018-Jun-18 18:59N 37°36' W 123°47'912.3
2018-Jun-18 18:15N 37°37' W 123°58'311.5
2018-Jun-18 18:01N 37°37' W 124°01'4 7.6
2018-Jun-18 17:31N 37°38' W 124°06'713.3
2018-Jun-18 17:00N 37°39' W 124°14'713.8
2018-Jun-18 16:30N 37°40' W 124°23'713.7
2018-Jun-18 16:00N 37°42' W 124°32'714.1
2018-Jun-18 15:29N 37°43' W 124°41'714.4
2018-Jun-18 14:59N 37°44' W 124°50'1811.2
2018-Jun-18 13:24N 37°45' W 125°12'4513.2
2018-Jun-18 10:00N 38°30' W 125°18'1212.0 360 / 61016.0 2.2 13.013.0
2018-Jun-18 09:00N 38°42' W 125°18'1212.0 020 / 71016.0 0.5 13.013.0
2018-Jun-18 08:00N 38°54' W 125°18'14514.5 350 / 151016.0 0.5 13.013.0
2018-Jun-17 22:00N 41°18' W 125°42'0 2.6 330 / 251013.0 5.4 17.013.713.0
2018-Jun-17 21:49N 41°18' W 125°43'715.0
2018-Jun-17 21:21N 41°25' W 125°44'514.2
2018-Jun-17 21:00N 41°30' W 125°42'259.6 350 / 201013.5 5.4 19.015.912.0
2018-Jun-17 20:57N 41°31' W 125°45'813.6
2018-Jun-17 20:22N 41°39' W 125°46'4 9.8
2018-Jun-17 20:00N 41°42' W 125°48'326.0 350 / 151014.0 5.4 18.014.8
2018-Jun-17 19:52N 41°45' W 125°47'513.8
2018-Jun-17 19:30N 41°50' W 125°48'3413.5
2018-Jun-17 17:00N 42°24' W 125°48'9015.0 350 / 181014.510.8 16.014.4
2018-Jun-17 11:00N 43°54' W 125°48'1212.0 350 / 201014.510.8 15.013.3
2018-Jun-17 10:00N 44°06' W 125°48'621.5 350 / 201014.510.8 15.013.3
2018-Jun-17 09:44N 44°10' W 125°53'314.6
2018-Jun-17 09:30N 44°13' W 125°54'1121.0
2018-Jun-17 09:00N 44°24' W 125°54'3483.3 350 / 221015.010.8 15.013.3
2018-Jun-17 08:59N 44°21' W 125°54'715.3
2018-Jun-17 08:30N 44°28' W 125°54'815.1
2018-Jun-17 07:58N 44°37' W 125°54'714.9
2018-Jun-17 07:28N 44°44' W 125°54'715.1
2018-Jun-17 06:59N 44°51' W 125°54'915.0
2018-Jun-17 06:24N 45°00' W 125°55'614.9
2018-Jun-17 06:00N 45°06' W 125°55'715.0
2018-Jun-17 05:30N 45°13' W 125°55'715.0
2018-Jun-17 05:00N 45°21' W 125°55'815.2
2018-Jun-17 04:30N 45°29' W 125°56'815.1
2018-Jun-17 04:00N 45°36' W 125°56'815.4
2018-Jun-17 03:30N 45°44' W 125°56'815.1
2018-Jun-17 03:00N 45°51' W 125°56'815.1
2018-Jun-17 02:30N 45°59' W 125°56'714.9
2018-Jun-17 02:00N 46°06' W 125°57'815.2
2018-Jun-17 01:30N 46°14' W 125°57'714.9
2018-Jun-17 01:00N 46°21' W 125°57'714.9
2018-Jun-17 00:30N 46°29' W 125°57'714.9
2018-Jun-17 00:00N 46°36' W 125°57'715.1
2018-Jun-16 23:31N 46°44' W 125°57'815.0
2018-Jun-16 23:00N 46°51' W 125°58'715.0
2018-Jun-16 22:31N 46°59' W 125°58'815.0
2018-Jun-16 22:00N 47°06' W 125°58'3173.6
2018-Jun-16 22:00N 47°06' W 125°54'816.7 340 / 181016.510.8 17.011.9 8.0
2018-Jun-16 21:30N 47°14' W 125°58'714.9
2018-Jun-16 21:00N 47°21' W 125°58'4268.8
2018-Jun-16 21:00N 47°24' W 125°54'511.0 330 / 201017.010.8 18.014.8
2018-Jun-16 20:30N 47°28' W 125°58'815.8
2018-Jun-16 20:00N 47°36' W 125°54'330.5 310 / 171017.010.8 19.014.2
2018-Jun-16 19:54N 47°37' W 125°58'514.0
2018-Jun-16 19:30N 47°42' W 125°54'714.2
2018-Jun-16 19:00N 47°47' W 125°47'714.3
2018-Jun-16 18:30N 47°53' W 125°41'714.3
2018-Jun-16 18:00N 47°59' W 125°35'714.7
2018-Jun-16 17:30N 48°05' W 125°28'714.4
2018-Jun-16 17:00N 48°11' W 125°22'5347.4
2018-Jun-16 17:00N 48°06' W 125°18'1121.8 300 / 51016.510.8 15.011.6
2018-Jun-16 16:30N 48°17' W 125°16'714.2
2018-Jun-16 16:00N 48°22' W 125°10'714.7
2018-Jun-16 15:30N 48°28' W 125°03'714.5
2018-Jun-16 15:00N 48°30' W 124°53'915.6
2018-Jun-16 14:27N 48°29' W 124°40'715.5
2018-Jun-16 14:00N 48°27' W 124°30'815.0
2018-Jun-16 13:30N 48°24' W 124°20'714.8
2018-Jun-16 13:00N 48°21' W 124°09'714.1
2018-Jun-16 12:30N 48°18' W 123°60'714.2
2018-Jun-16 12:00N 48°16' W 123°49'914.4
2018-Jun-16 11:21N 48°15' W 123°35'613.9
2018-Jun-16 10:55N 48°13' W 123°27'512.0
2018-Jun-16 10:30N 48°09' W 123°23'510.5
2018-Jun-16 10:00N 48°11' W 123°15'713.5
2018-Jun-16 09:30N 48°16' W 123°08'2110.6
2018-Jun-16 07:29N 48°30' W 122°44'811.0
2018-Jun-16 06:44N 48°38' W 122°44'310.1
2018-Jun-16 06:28N 48°41' W 122°44'610.2
2018-Jun-16 05:53N 48°47' W 122°46'5 0.2
2018-Jun-15 00:52N 48°52' W 122°46'0 0.5
2018-Jun-15 00:30N 48°52' W 122°46'1 1.5
2018-Jun-14 23:58N 48°51' W 122°47'4 7.5
2018-Jun-14 23:29N 48°47' W 122°47'613.1
2018-Jun-14 23:01N 48°42' W 122°44'815.6
2018-Jun-14 22:30N 48°34' W 122°45'917.1
2018-Jun-14 22:01N 48°25' W 122°46'816.0
2018-Jun-14 21:29N 48°20' W 122°56'23 2.5
2018-Jun-14 12:14N 48°08' W 123°26'0 0.0
2018-Jun-14 11:44N 48°08' W 123°26'0 0.0
2018-Jun-14 11:26N 48°08' W 123°26'0 0.0
2018-Jun-14 10:59N 48°08' W 123°26'0 0.1
2018-Jun-14 10:14N 48°08' W 123°26'0 0.0
2018-Jun-14 09:53N 48°08' W 123°26'0 0.0
2018-Jun-14 09:29N 48°08' W 123°26'2 5.1
2018-Jun-14 09:00N 48°06' W 123°24'221.8 280 / 171016.510.8 12.010.2
2018-Jun-14 08:53N 48°08' W 123°26'2 2.7
2018-Jun-14 08:00N 48°06' W 123°24'2 3.0 280 / 151016.010.8 12.010.2
2018-Jun-14 07:11N 48°08' W 123°26'0 0.0
2018-Jun-13 10:47N 48°08' W 123°26'0 0.3
2018-Jun-13 10:11N 48°08' W 123°26'313.3
2018-Jun-13 10:00N 48°06' W 123°24'2 2.7 1011.010.8 12.010.2
2018-Jun-13 09:05N 48°08' W 123°26'227.5
2018-Jun-13 09:00N 48°06' W 123°24'241.2 1011.010.8 12.010.2
2018-Jun-13 08:56N 48°08' W 123°26'0 0.1
2018-Jun-13 08:29N 48°08' W 123°26'0 0.0
2018-Jun-13 07:53N 48°08' W 123°26'0 0.1
2018-Jun-13 07:29N 48°08' W 123°26'0 0.2
2018-Jun-13 06:56N 48°08' W 123°26'0 0.0
2018-Jun-13 06:29N 48°08' W 123°26'2 5.0
2018-Jun-13 06:00N 48°06' W 123°24'2238.2 080 / 51013.510.8 15.0 9.7
2018-Jun-13 05:59N 48°08' W 123°26'0 0.0
2018-Jun-12 13:53N 48°08' W 123°26'0 0.1
2018-Jun-12 13:26N 48°08' W 123°26'0 0.1
2018-Jun-12 12:58N 48°08' W 123°26'3 5.8
2018-Jun-12 12:30N 48°09' W 123°23'4 8.9
2018-Jun-12 12:00N 48°12' W 123°29'612.2
2018-Jun-12 11:30N 48°13' W 123°38'1114.1
2018-Jun-12 10:41N 48°13' W 123°55'713.9
2018-Jun-12 10:12N 48°16' W 124°04'314.5
2018-Jun-12 10:00N 48°17' W 124°08'714.4
2018-Jun-12 09:31N 48°20' W 124°18'714.3
2018-Jun-12 09:00N 48°23' W 124°27'714.5
2018-Jun-12 08:31N 48°26' W 124°37'714.7
2018-Jun-12 08:01N 48°28' W 124°48'814.9
2018-Jun-12 07:29N 48°28' W 124°59'715.3
2018-Jun-12 07:00N 48°22' W 125°06'814.7
2018-Jun-12 06:27N 48°15' W 125°13'1014.7
2018-Jun-12 05:48N 48°08' W 125°23'414.3
2018-Jun-12 05:30N 48°05' W 125°26'3714.4
2018-Jun-12 02:54N 47°35' W 126°01'3714.2
2018-Jun-12 00:19N 46°59' W 126°00'5315.8
2018-Jun-11 21:00N 46°06' W 125°54'1212.0 030 / 101024.010.8 16.0 8.813.0
2018-Jun-11 20:00N 45°54' W 125°54'2313.1 010 / 151023.510.8 15.0 7.612.0
2018-Jun-11 18:16N 45°31' W 125°55'914.7
2018-Jun-11 17:41N 45°23' W 125°55'  

Dump ship's entire track history